sensor_id;sensor_type;location;lat;lon;timestamp;temperature;humidity
30678;DHT22;17437;47.188;8.896;2022-09-01T00:01:16;15.50;99.90
30678;DHT22;17437;47.188;8.896;2022-09-01T00:03:50;15.50;99.90
30678;DHT22;17437;47.188;8.896;2022-09-01T00:06:23;15.50;99.90
30678;DHT22;17437;47.188;8.896;2022-09-01T00:09:00;15.50;99.90
30678;DHT22;17437;47.188;8.896;2022-09-01T00:11:30;15.40;99.90
30678;DHT22;17437;47.188;8.896;2022-09-01T00:14:03;15.40;99.90
30678;DHT22;17437;47.188;8.896;2022-09-01T00:16:37;15.50;99.90
30678;DHT22;17437;47.188;8.896;2022-09-01T00:19:09;15.40;99.90
30678;DHT22;17437;47.188;8.896;2022-09-01T00:21:43;15.40;99.90
30678;DHT22;17437;47.188;8.896;2022-09-01T00:24:17;15.40;99.90
30678;DHT22;17437;47.188;8.896;2022-09-01T00:26:49;15.30;99.90
30678;DHT22;17437;47.188;8.896;2022-09-01T00:29:21;15.40;99.90
30678;DHT22;17437;47.188;8.896;2022-09-01T00:31:53;15.40;99.90
30678;DHT22;17437;47.188;8.896;2022-09-01T00:34:25;15.40;99.90
30678;DHT22;17437;47.188;8.896;2022-09-01T00:36:56;15.40;99.90
30678;DHT22;17437;47.188;8.896;2022-09-01T00:39:28;15.30;99.90
30678;DHT22;17437;47.188;8.896;2022-09-01T00:41:59;15.30;99.90
30678;DHT22;17437;47.188;8.896;2022-09-01T00:44:31;15.10;99.90
30678;DHT22;17437;47.188;8.896;2022-09-01T00:47:04;15.10;99.90
30678;DHT22;17437;47.188;8.896;2022-09-01T00:49:38;15.10;99.90
30678;DHT22;17437;47.188;8.896;2022-09-01T00:52:13;15.10;99.90
30678;DHT22;17437;47.188;8.896;2022-09-01T00:54:48;15.10;99.90
30678;DHT22;17437;47.188;8.896;2022-09-01T00:57:20;15.20;99.90
30678;DHT22;17437;47.188;8.896;2022-09-01T00:59:55;15.20;99.90
30678;DHT22;17437;47.188;8.896;2022-09-01T01:02:27;15.20;99.90
30678;DHT22;17437;47.188;8.896;2022-09-01T01:04:58;15.20;99.90
30678;DHT22;17437;47.188;8.896;2022-09-01T01:07:31;15.20;99.90
30678;DHT22;17437;47.188;8.896;2022-09-01T01:10:08;15.30;99.90
30678;DHT22;17437;47.188;8.896;2022-09-01T01:12:41;15.20;99.90
30678;DHT22;17437;47.188;8.896;2022-09-01T01:15:14;15.20;99.90
30678;DHT22;17437;47.188;8.896;2022-09-01T01:17:46;15.20;99.90
30678;DHT22;17437;47.188;8.896;2022-09-01T01:20:20;15.20;99.90
30678;DHT22;17437;47.188;8.896;2022-09-01T01:23:13;15.10;99.90
30678;DHT22;17437;47.188;8.896;2022-09-01T01:25:47;15.10;99.90
30678;DHT22;17437;47.188;8.896;2022-09-01T01:28:22;15.00;99.90
30678;DHT22;17437;47.188;8.896;2022-09-01T01:30:57;15.00;99.90
30678;DHT22;17437;47.188;8.896;2022-09-01T01:33:34;15.00;99.90
30678;DHT22;17437;47.188;8.896;2022-09-01T01:36:11;15.00;99.90
30678;DHT22;17437;47.188;8.896;2022-09-01T01:38:47;14.90;99.90
30678;DHT22;17437;47.188;8.896;2022-09-01T01:41:19;15.00;99.90
30678;DHT22;17437;47.188;8.896;2022-09-01T01:43:52;15.00;99.90
30678;DHT22;17437;47.188;8.896;2022-09-01T01:46:25;15.00;99.90
30678;DHT22;17437;47.188;8.896;2022-09-01T01:48:57;15.00;99.90
30678;DHT22;17437;47.188;8.896;2022-09-01T01:51:30;15.00;99.90
30678;DHT22;17437;47.188;8.896;2022-09-01T01:54:02;15.10;99.90
30678;DHT22;17437;47.188;8.896;2022-09-01T01:56:35;15.20;99.90
30678;DHT22;17437;47.188;8.896;2022-09-01T01:59:09;15.20;99.90
30678;DHT22;17437;47.188;8.896;2022-09-01T02:01:43;15.30;99.90
30678;DHT22;17437;47.188;8.896;2022-09-01T02:04:18;15.40;99.90
30678;DHT22;17437;47.188;8.896;2022-09-01T02:06:50;15.40;99.90
30678;DHT22;17437;47.188;8.896;2022-09-01T02:09:21;15.40;99.90
30678;DHT22;17437;47.188;8.896;2022-09-01T02:11:53;15.50;99.90
30678;DHT22;17437;47.188;8.896;2022-09-01T02:14:26;15.50;99.90
30678;DHT22;17437;47.188;8.896;2022-09-01T02:16:58;15.50;99.90
30678;DHT22;17437;47.188;8.896;2022-09-01T02:19:31;15.50;99.90
30678;DHT22;17437;47.188;8.896;2022-09-01T02:22:03;15.60;99.90
30678;DHT22;17437;47.188;8.896;2022-09-01T02:24:35;15.60;99.90
30678;DHT22;17437;47.188;8.896;2022-09-01T02:27:06;15.70;99.90
30678;DHT22;17437;47.188;8.896;2022-09-01T02:29:39;15.70;99.90
30678;DHT22;17437;47.188;8.896;2022-09-01T02:32:12;15.70;99.90
30678;DHT22;17437;47.188;8.896;2022-09-01T02:34:45;15.70;99.90
30678;DHT22;17437;47.188;8.896;2022-09-01T02:37:18;15.80;99.90
30678;DHT22;17437;47.188;8.896;2022-09-01T02:39:53;15.80;99.90
30678;DHT22;17437;47.188;8.896;2022-09-01T02:42:26;15.80;99.90
30678;DHT22;17437;47.188;8.896;2022-09-01T02:44:58;15.90;99.90
30678;DHT22;17437;47.188;8.896;2022-09-01T02:47:31;15.90;99.90
30678;DHT22;17437;47.188;8.896;2022-09-01T02:50:06;15.90;99.90
30678;DHT22;17437;47.188;8.896;2022-09-01T02:52:39;15.90;99.90
30678;DHT22;17437;47.188;8.896;2022-09-01T02:55:11;15.90;99.90
30678;DHT22;17437;47.188;8.896;2022-09-01T02:57:43;16.00;99.90
30678;DHT22;17437;47.188;8.896;2022-09-01T03:00:18;16.00;99.90
30678;DHT22;17437;47.188;8.896;2022-09-01T03:02:55;16.00;99.90
30678;DHT22;17437;47.188;8.896;2022-09-01T03:05:29;16.00;99.90
30678;DHT22;17437;47.188;8.896;2022-09-01T03:08:04;16.00;99.90
30678;DHT22;17437;47.188;8.896;2022-09-01T03:10:39;16.10;99.90
30678;DHT22;17437;47.188;8.896;2022-09-01T03:13:13;16.00;99.90
30678;DHT22;17437;47.188;8.896;2022-09-01T03:15:45;16.10;99.90
30678;DHT22;17437;47.188;8.896;2022-09-01T03:18:17;16.10;99.90
30678;DHT22;17437;47.188;8.896;2022-09-01T03:20:49;16.10;99.90
30678;DHT22;17437;47.188;8.896;2022-09-01T03:23:22;16.10;99.90
30678;DHT22;17437;47.188;8.896;2022-09-01T03:25:54;16.10;99.90
30678;DHT22;17437;47.188;8.896;2022-09-01T03:28:26;16.20;99.90
30678;DHT22;17437;47.188;8.896;2022-09-01T03:30:58;16.20;99.90
30678;DHT22;17437;47.188;8.896;2022-09-01T03:33:29;16.20;99.90
30678;DHT22;17437;47.188;8.896;2022-09-01T03:36:02;16.30;99.90
30678;DHT22;17437;47.188;8.896;2022-09-01T03:38:36;16.20;99.90
30678;DHT22;17437;47.188;8.896;2022-09-01T03:41:07;16.30;99.90
30678;DHT22;17437;47.188;8.896;2022-09-01T03:43:38;16.30;99.90
30678;DHT22;17437;47.188;8.896;2022-09-01T03:46:12;16.30;99.90
30678;DHT22;17437;47.188;8.896;2022-09-01T03:48:49;16.30;99.90
30678;DHT22;17437;47.188;8.896;2022-09-01T03:51:22;16.20;99.90
30678;DHT22;17437;47.188;8.896;2022-09-01T03:53:55;16.30;99.90
30678;DHT22;17437;47.188;8.896;2022-09-01T03:56:28;16.30;99.90
30678;DHT22;17437;47.188;8.896;2022-09-01T03:59:00;16.20;99.90
30678;DHT22;17437;47.188;8.896;2022-09-01T04:01:32;16.20;99.90
30678;DHT22;17437;47.188;8.896;2022-09-01T04:04:05;16.20;99.90
30678;DHT22;17437;47.188;8.896;2022-09-01T04:06:37;16.10;99.90
30678;DHT22;17437;47.188;8.896;2022-09-01T04:09:09;16.20;99.90
30678;DHT22;17437;47.188;8.896;2022-09-01T04:11:40;16.20;99.90
30678;DHT22;17437;47.188;8.896;2022-09-01T04:14:15;16.20;99.90
30678;DHT22;17437;47.188;8.896;2022-09-01T04:16:46;16.20;99.90
30678;DHT22;17437;47.188;8.896;2022-09-01T04:19:36;16.20;99.90
30678;DHT22;17437;47.188;8.896;2022-09-01T04:22:09;16.20;99.90
30678;DHT22;17437;47.188;8.896;2022-09-01T04:24:44;16.20;99.90
30678;DHT22;17437;47.188;8.896;2022-09-01T04:27:16;16.30;99.90
30678;DHT22;17437;47.188;8.896;2022-09-01T04:29:49;16.30;99.90
30678;DHT22;17437;47.188;8.896;2022-09-01T04:32:22;16.20;99.90
30678;DHT22;17437;47.188;8.896;2022-09-01T04:34:54;16.20;99.90
30678;DHT22;17437;47.188;8.896;2022-09-01T04:37:26;16.10;99.90
30678;DHT22;17437;47.188;8.896;2022-09-01T04:39:57;16.00;99.90
30678;DHT22;17437;47.188;8.896;2022-09-01T04:42:30;16.00;99.90
30678;DHT22;17437;47.188;8.896;2022-09-01T04:45:02;16.00;99.90
30678;DHT22;17437;47.188;8.896;2022-09-01T04:47:35;16.00;99.90
30678;DHT22;17437;47.188;8.896;2022-09-01T04:50:10;16.00;99.90
30678;DHT22;17437;47.188;8.896;2022-09-01T04:52:45;16.00;99.90
30678;DHT22;17437;47.188;8.896;2022-09-01T04:55:16;16.00;99.90
30678;DHT22;17437;47.188;8.896;2022-09-01T04:57:49;16.00;99.90
30678;DHT22;17437;47.188;8.896;2022-09-01T05:00:22;16.00;99.90
30678;DHT22;17437;47.188;8.896;2022-09-01T05:02:55;16.00;99.90
30678;DHT22;17437;47.188;8.896;2022-09-01T05:05:34;16.00;99.90
30678;DHT22;17437;47.188;8.896;2022-09-01T05:08:02;16.10;99.90
30678;DHT22;17437;47.188;8.896;2022-09-01T05:10:37;16.10;99.90
30678;DHT22;17437;47.188;8.896;2022-09-01T05:13:11;16.10;99.90
30678;DHT22;17437;47.188;8.896;2022-09-01T05:15:45;16.10;99.90
30678;DHT22;17437;47.188;8.896;2022-09-01T05:18:35;16.10;99.90
30678;DHT22;17437;47.188;8.896;2022-09-01T05:21:08;16.20;99.90
30678;DHT22;17437;47.188;8.896;2022-09-01T05:23:40;16.20;99.90
30678;DHT22;17437;47.188;8.896;2022-09-01T05:26:14;16.20;99.90
30678;DHT22;17437;47.188;8.896;2022-09-01T05:28:49;16.30;99.90
30678;DHT22;17437;47.188;8.896;2022-09-01T05:31:22;16.40;99.90
30678;DHT22;17437;47.188;8.896;2022-09-01T05:33:55;16.40;99.90
30678;DHT22;17437;47.188;8.896;2022-09-01T05:36:27;16.40;99.90
30678;DHT22;17437;47.188;8.896;2022-09-01T05:39:01;16.40;99.90
30678;DHT22;17437;47.188;8.896;2022-09-01T05:41:34;16.40;99.90
30678;DHT22;17437;47.188;8.896;2022-09-01T05:44:08;16.40;99.90
30678;DHT22;17437;47.188;8.896;2022-09-01T05:46:43;16.50;99.90
30678;DHT22;17437;47.188;8.896;2022-09-01T05:49:17;16.50;99.90
30678;DHT22;17437;47.188;8.896;2022-09-01T05:51:49;16.60;99.90
30678;DHT22;17437;47.188;8.896;2022-09-01T05:54:23;16.60;99.90
30678;DHT22;17437;47.188;8.896;2022-09-01T05:57:16;16.50;99.90
30678;DHT22;17437;47.188;8.896;2022-09-01T05:59:50;16.50;99.90
30678;DHT22;17437;47.188;8.896;2022-09-01T06:02:23;16.60;99.90
30678;DHT22;17437;47.188;8.896;2022-09-01T06:05:04;16.70;99.90
30678;DHT22;17437;47.188;8.896;2022-09-01T06:07:49;16.70;99.90
30678;DHT22;17437;47.188;8.896;2022-09-01T06:10:26;16.70;99.90
30678;DHT22;17437;47.188;8.896;2022-09-01T06:13:00;16.70;99.90
30678;DHT22;17437;47.188;8.896;2022-09-01T06:15:32;16.80;99.90
30678;DHT22;17437;47.188;8.896;2022-09-01T06:18:05;16.90;99.90
30678;DHT22;17437;47.188;8.896;2022-09-01T06:20:39;16.90;99.90
30678;DHT22;17437;47.188;8.896;2022-09-01T06:23:12;17.00;99.90
30678;DHT22;17437;47.188;8.896;2022-09-01T06:25:47;17.00;99.90
30678;DHT22;17437;47.188;8.896;2022-09-01T06:28:19;17.00;99.90
30678;DHT22;17437;47.188;8.896;2022-09-01T06:30:52;17.00;99.90
30678;DHT22;17437;47.188;8.896;2022-09-01T06:33:24;16.90;99.90
30678;DHT22;17437;47.188;8.896;2022-09-01T06:35:56;16.90;99.90
30678;DHT22;17437;47.188;8.896;2022-09-01T06:38:28;17.00;99.90
30678;DHT22;17437;47.188;8.896;2022-09-01T06:41:01;17.00;99.90
30678;DHT22;17437;47.188;8.896;2022-09-01T06:43:33;17.00;99.90
30678;DHT22;17437;47.188;8.896;2022-09-01T06:46:05;17.00;99.90
30678;DHT22;17437;47.188;8.896;2022-09-01T06:48:38;17.00;99.90
30678;DHT22;17437;47.188;8.896;2022-09-01T06:51:12;17.10;99.90
30678;DHT22;17437;47.188;8.896;2022-09-01T06:53:48;17.10;99.90
30678;DHT22;17437;47.188;8.896;2022-09-01T06:56:20;17.20;99.90
30678;DHT22;17437;47.188;8.896;2022-09-01T06:58:54;17.30;99.90
30678;DHT22;17437;47.188;8.896;2022-09-01T07:01:26;17.40;99.90
30678;DHT22;17437;47.188;8.896;2022-09-01T07:03:59;17.60;99.90
30678;DHT22;17437;47.188;8.896;2022-09-01T07:06:32;17.60;99.90
30678;DHT22;17437;47.188;8.896;2022-09-01T07:09:06;17.70;99.90
30678;DHT22;17437;47.188;8.896;2022-09-01T07:11:39;17.70;99.90
30678;DHT22;17437;47.188;8.896;2022-09-01T07:14:13;17.80;99.90
30678;DHT22;17437;47.188;8.896;2022-09-01T07:16:45;17.90;99.90
30678;DHT22;17437;47.188;8.896;2022-09-01T07:19:18;17.90;99.90
30678;DHT22;17437;47.188;8.896;2022-09-01T07:21:49;17.90;99.90
30678;DHT22;17437;47.188;8.896;2022-09-01T07:24:22;17.90;99.90
30678;DHT22;17437;47.188;8.896;2022-09-01T07:26:56;17.90;99.90
30678;DHT22;17437;47.188;8.896;2022-09-01T07:29:29;18.00;99.90
30678;DHT22;17437;47.188;8.896;2022-09-01T07:32:02;18.00;99.90
30678;DHT22;17437;47.188;8.896;2022-09-01T07:34:36;17.90;99.90
30678;DHT22;17437;47.188;8.896;2022-09-01T07:37:09;18.00;99.90
30678;DHT22;17437;47.188;8.896;2022-09-01T07:39:42;18.10;99.90
30678;DHT22;17437;47.188;8.896;2022-09-01T07:42:17;18.30;99.90
30678;DHT22;17437;47.188;8.896;2022-09-01T07:44:52;18.50;99.90
30678;DHT22;17437;47.188;8.896;2022-09-01T07:47:23;18.60;99.90
30678;DHT22;17437;47.188;8.896;2022-09-01T07:49:57;18.70;99.90
30678;DHT22;17437;47.188;8.896;2022-09-01T07:52:31;18.80;99.90
30678;DHT22;17437;47.188;8.896;2022-09-01T07:55:04;18.80;99.90
30678;DHT22;17437;47.188;8.896;2022-09-01T07:57:37;18.90;99.90
30678;DHT22;17437;47.188;8.896;2022-09-01T08:00:13;19.00;99.90
30678;DHT22;17437;47.188;8.896;2022-09-01T08:02:45;19.10;99.90
30678;DHT22;17437;47.188;8.896;2022-09-01T08:08:18;19.20;99.90
30678;DHT22;17437;47.188;8.896;2022-09-01T08:10:53;19.20;99.90
30678;DHT22;17437;47.188;8.896;2022-09-01T08:13:26;19.20;99.90
30678;DHT22;17437;47.188;8.896;2022-09-01T08:15:58;19.30;99.90
30678;DHT22;17437;47.188;8.896;2022-09-01T08:18:33;19.30;99.90
30678;DHT22;17437;47.188;8.896;2022-09-01T08:21:07;19.40;99.90
30678;DHT22;17437;47.188;8.896;2022-09-01T08:23:39;19.40;99.90
30678;DHT22;17437;47.188;8.896;2022-09-01T08:26:13;19.50;99.90
30678;DHT22;17437;47.188;8.896;2022-09-01T08:28:45;19.60;99.90
30678;DHT22;17437;47.188;8.896;2022-09-01T08:31:19;19.60;99.90
30678;DHT22;17437;47.188;8.896;2022-09-01T08:33:51;19.70;99.90
30678;DHT22;17437;47.188;8.896;2022-09-01T08:36:23;19.80;99.90
30678;DHT22;17437;47.188;8.896;2022-09-01T08:38:55;19.90;99.90
30678;DHT22;17437;47.188;8.896;2022-09-01T08:41:34;20.00;99.90
30678;DHT22;17437;47.188;8.896;2022-09-01T08:44:09;20.00;99.90
30678;DHT22;17437;47.188;8.896;2022-09-01T08:46:43;19.80;99.90
30678;DHT22;17437;47.188;8.896;2022-09-01T08:49:17;19.40;99.90
30678;DHT22;17437;47.188;8.896;2022-09-01T08:51:54;19.40;99.90
30678;DHT22;17437;47.188;8.896;2022-09-01T08:54:31;19.50;99.90
30678;DHT22;17437;47.188;8.896;2022-09-01T08:57:05;19.90;99.90
30678;DHT22;17437;47.188;8.896;2022-09-01T08:59:37;20.30;99.90
30678;DHT22;17437;47.188;8.896;2022-09-01T09:02:22;20.60;99.90
30678;DHT22;17437;47.188;8.896;2022-09-01T09:04:58;20.80;99.90
30678;DHT22;17437;47.188;8.896;2022-09-01T09:07:43;20.90;99.90
30678;DHT22;17437;47.188;8.896;2022-09-01T09:10:17;20.90;99.90
30678;DHT22;17437;47.188;8.896;2022-09-01T09:12:55;21.00;99.90
30678;DHT22;17437;47.188;8.896;2022-09-01T09:15:32;20.90;99.90
30678;DHT22;17437;47.188;8.896;2022-09-01T09:18:12;21.10;99.90
30678;DHT22;17437;47.188;8.896;2022-09-01T09:20:46;21.40;99.90
30678;DHT22;17437;47.188;8.896;2022-09-01T09:23:23;21.60;99.90
30678;DHT22;17437;47.188;8.896;2022-09-01T09:25:55;21.60;99.90
30678;DHT22;17437;47.188;8.896;2022-09-01T09:28:27;21.60;99.90
30678;DHT22;17437;47.188;8.896;2022-09-01T09:31:30;21.60;99.90
30678;DHT22;17437;47.188;8.896;2022-09-01T09:34:04;21.80;99.90
30678;DHT22;17437;47.188;8.896;2022-09-01T09:36:37;21.90;99.90
30678;DHT22;17437;47.188;8.896;2022-09-01T09:39:10;22.10;99.90
30678;DHT22;17437;47.188;8.896;2022-09-01T09:41:59;22.10;99.90
30678;DHT22;17437;47.188;8.896;2022-09-01T09:44:23;22.20;99.90
30678;DHT22;17437;47.188;8.896;2022-09-01T09:46:54;22.10;99.90
30678;DHT22;17437;47.188;8.896;2022-09-01T09:49:28;22.20;99.90
30678;DHT22;17437;47.188;8.896;2022-09-01T09:52:15;22.30;99.90
30678;DHT22;17437;47.188;8.896;2022-09-01T09:55:02;22.50;99.90
30678;DHT22;17437;47.188;8.896;2022-09-01T09:57:37;22.50;99.90
30678;DHT22;17437;47.188;8.896;2022-09-01T10:00:18;22.40;99.90
30678;DHT22;17437;47.188;8.896;2022-09-01T10:02:55;22.20;99.90
30678;DHT22;17437;47.188;8.896;2022-09-01T10:05:39;22.30;99.90
30678;DHT22;17437;47.188;8.896;2022-09-01T10:08:14;22.40;99.90
30678;DHT22;17437;47.188;8.896;2022-09-01T10:10:49;22.60;99.90
30678;DHT22;17437;47.188;8.896;2022-09-01T10:13:24;22.70;99.90
30678;DHT22;17437;47.188;8.896;2022-09-01T10:15:59;22.70;99.90
30678;DHT22;17437;47.188;8.896;2022-09-01T10:18:35;22.50;99.90
30678;DHT22;17437;47.188;8.896;2022-09-01T10:21:11;22.30;99.90
30678;DHT22;17437;47.188;8.896;2022-09-01T10:23:43;22.40;99.90
30678;DHT22;17437;47.188;8.896;2022-09-01T10:26:17;22.50;99.90
30678;DHT22;17437;47.188;8.896;2022-09-01T10:28:51;22.80;99.90
30678;DHT22;17437;47.188;8.896;2022-09-01T10:31:24;23.00;99.90
30678;DHT22;17437;47.188;8.896;2022-09-01T10:33:59;23.20;99.90
30678;DHT22;17437;47.188;8.896;2022-09-01T10:36:33;23.30;99.90
30678;DHT22;17437;47.188;8.896;2022-09-01T10:39:09;23.20;99.90
30678;DHT22;17437;47.188;8.896;2022-09-01T10:41:47;23.40;99.90
30678;DHT22;17437;47.188;8.896;2022-09-01T10:44:21;23.40;99.90
30678;DHT22;17437;47.188;8.896;2022-09-01T10:46:55;23.50;99.90
30678;DHT22;17437;47.188;8.896;2022-09-01T10:49:57;23.60;99.90
30678;DHT22;17437;47.188;8.896;2022-09-01T10:52:55;23.60;99.90
30678;DHT22;17437;47.188;8.896;2022-09-01T10:55:30;23.70;99.90
30678;DHT22;17437;47.188;8.896;2022-09-01T10:58:28;23.80;99.90
30678;DHT22;17437;47.188;8.896;2022-09-01T11:01:00;23.70;99.90
30678;DHT22;17437;47.188;8.896;2022-09-01T11:03:49;23.90;99.90
30678;DHT22;17437;47.188;8.896;2022-09-01T11:06:56;23.90;99.90
30678;DHT22;17437;47.188;8.896;2022-09-01T11:09:35;23.80;99.90
30678;DHT22;17437;47.188;8.896;2022-09-01T11:12:24;23.60;99.90
30678;DHT22;17437;47.188;8.896;2022-09-01T11:14:57;23.40;99.90
30678;DHT22;17437;47.188;8.896;2022-09-01T11:17:32;23.10;99.90
30678;DHT22;17437;47.188;8.896;2022-09-01T11:20:07;23.10;99.90
30678;DHT22;17437;47.188;8.896;2022-09-01T11:22:41;23.20;99.90
30678;DHT22;17437;47.188;8.896;2022-09-01T11:31:29;22.50;99.90
30678;DHT22;17437;47.188;8.896;2022-09-01T11:34:13;22.40;99.90
30678;DHT22;17437;47.188;8.896;2022-09-01T11:36:57;22.20;99.90
30678;DHT22;17437;47.188;8.896;2022-09-01T11:39:42;22.20;99.90
30678;DHT22;17437;47.188;8.896;2022-09-01T11:42:19;22.30;99.90
30678;DHT22;17437;47.188;8.896;2022-09-01T11:44:55;22.40;99.90
30678;DHT22;17437;47.188;8.896;2022-09-01T11:47:29;22.40;99.90
30678;DHT22;17437;47.188;8.896;2022-09-01T11:50:04;22.30;99.90
30678;DHT22;17437;47.188;8.896;2022-09-01T11:52:37;22.40;99.90
30678;DHT22;17437;47.188;8.896;2022-09-01T11:55:10;22.50;99.90
30678;DHT22;17437;47.188;8.896;2022-09-01T11:57:42;22.50;99.90
30678;DHT22;17437;47.188;8.896;2022-09-01T12:00:16;22.50;99.90
30678;DHT22;17437;47.188;8.896;2022-09-01T12:02:50;22.60;99.90
30678;DHT22;17437;47.188;8.896;2022-09-01T12:05:30;22.80;99.90
30678;DHT22;17437;47.188;8.896;2022-09-01T12:08:04;22.80;99.90
30678;DHT22;17437;47.188;8.896;2022-09-01T12:10:38;22.80;99.90
30678;DHT22;17437;47.188;8.896;2022-09-01T12:13:16;22.80;99.90
30678;DHT22;17437;47.188;8.896;2022-09-01T12:15:51;22.60;99.90
30678;DHT22;17437;47.188;8.896;2022-09-01T12:18:25;22.40;99.90
30678;DHT22;17437;47.188;8.896;2022-09-01T12:20:58;22.50;99.90
30678;DHT22;17437;47.188;8.896;2022-09-01T12:23:32;22.70;99.90
30678;DHT22;17437;47.188;8.896;2022-09-01T12:26:10;23.00;99.90
30678;DHT22;17437;47.188;8.896;2022-09-01T12:28:40;23.00;99.90
30678;DHT22;17437;47.188;8.896;2022-09-01T12:31:15;23.00;99.90
30678;DHT22;17437;47.188;8.896;2022-09-01T12:33:48;23.00;99.90
30678;DHT22;17437;47.188;8.896;2022-09-01T12:36:24;23.00;99.90
30678;DHT22;17437;47.188;8.896;2022-09-01T12:39:17;22.90;99.90
30678;DHT22;17437;47.188;8.896;2022-09-01T12:41:34;22.80;99.90
30678;DHT22;17437;47.188;8.896;2022-09-01T12:44:28;22.70;99.90
30678;DHT22;17437;47.188;8.896;2022-09-01T12:47:02;22.70;99.90
30678;DHT22;17437;47.188;8.896;2022-09-01T12:49:40;22.70;99.90
30678;DHT22;17437;47.188;8.896;2022-09-01T12:52:24;22.60;99.90
30678;DHT22;17437;47.188;8.896;2022-09-01T12:55:07;22.60;99.90
30678;DHT22;17437;47.188;8.896;2022-09-01T12:57:45;22.80;99.90
30678;DHT22;17437;47.188;8.896;2022-09-01T13:00:21;23.10;99.90
30678;DHT22;17437;47.188;8.896;2022-09-01T13:03:07;23.50;99.90
30678;DHT22;17437;47.188;8.896;2022-09-01T13:05:40;23.70;99.90
30678;DHT22;17437;47.188;8.896;2022-09-01T13:08:15;23.70;99.90
30678;DHT22;17437;47.188;8.896;2022-09-01T13:10:49;23.60;99.90
30678;DHT22;17437;47.188;8.896;2022-09-01T13:13:24;23.50;99.90
30678;DHT22;17437;47.188;8.896;2022-09-01T13:15:56;23.40;99.90
30678;DHT22;17437;47.188;8.896;2022-09-01T13:18:30;23.20;99.90
30678;DHT22;17437;47.188;8.896;2022-09-01T13:21:02;23.20;99.90
30678;DHT22;17437;47.188;8.896;2022-09-01T13:23:33;23.10;99.90
30678;DHT22;17437;47.188;8.896;2022-09-01T13:26:07;23.10;99.90
30678;DHT22;17437;47.188;8.896;2022-09-01T13:28:39;23.00;99.90
30678;DHT22;17437;47.188;8.896;2022-09-01T13:31:10;23.10;99.90
30678;DHT22;17437;47.188;8.896;2022-09-01T13:33:44;23.00;99.90
30678;DHT22;17437;47.188;8.896;2022-09-01T13:36:18;22.70;99.90
30678;DHT22;17437;47.188;8.896;2022-09-01T13:38:51;22.50;99.90
30678;DHT22;17437;47.188;8.896;2022-09-01T13:41:24;22.40;99.90
30678;DHT22;17437;47.188;8.896;2022-09-01T13:43:55;22.40;99.90
30678;DHT22;17437;47.188;8.896;2022-09-01T13:46:27;22.50;99.90
30678;DHT22;17437;47.188;8.896;2022-09-01T13:48:59;22.60;99.90
30678;DHT22;17437;47.188;8.896;2022-09-01T13:51:33;22.70;99.90
30678;DHT22;17437;47.188;8.896;2022-09-01T13:54:06;22.80;99.90
30678;DHT22;17437;47.188;8.896;2022-09-01T13:56:37;22.90;99.90
30678;DHT22;17437;47.188;8.896;2022-09-01T13:59:09;22.90;99.90
30678;DHT22;17437;47.188;8.896;2022-09-01T14:01:40;22.90;99.90
30678;DHT22;17437;47.188;8.896;2022-09-01T14:04:12;22.90;99.90
30678;DHT22;17437;47.188;8.896;2022-09-01T14:06:43;22.90;99.90
30678;DHT22;17437;47.188;8.896;2022-09-01T14:09:15;22.80;99.90
30678;DHT22;17437;47.188;8.896;2022-09-01T14:11:47;22.80;99.90
30678;DHT22;17437;47.188;8.896;2022-09-01T14:14:18;22.80;99.90
30678;DHT22;17437;47.188;8.896;2022-09-01T14:16:50;22.90;99.90
30678;DHT22;17437;47.188;8.896;2022-09-01T14:19:21;23.00;99.90
30678;DHT22;17437;47.188;8.896;2022-09-01T14:21:53;23.00;99.90
30678;DHT22;17437;47.188;8.896;2022-09-01T14:24:26;23.00;99.90
30678;DHT22;17437;47.188;8.896;2022-09-01T14:26:57;23.10;99.90
30678;DHT22;17437;47.188;8.896;2022-09-01T14:29:29;23.20;99.90
30678;DHT22;17437;47.188;8.896;2022-09-01T14:32:01;23.20;99.90
30678;DHT22;17437;47.188;8.896;2022-09-01T14:34:33;23.20;99.90
30678;DHT22;17437;47.188;8.896;2022-09-01T14:37:05;23.30;99.90
30678;DHT22;17437;47.188;8.896;2022-09-01T14:39:37;23.40;99.90
30678;DHT22;17437;47.188;8.896;2022-09-01T14:42:08;23.30;99.90
30678;DHT22;17437;47.188;8.896;2022-09-01T14:44:40;23.10;99.90
30678;DHT22;17437;47.188;8.896;2022-09-01T14:47:13;23.20;99.90
30678;DHT22;17437;47.188;8.896;2022-09-01T14:49:47;23.20;99.90
30678;DHT22;17437;47.188;8.896;2022-09-01T14:52:20;23.20;99.90
30678;DHT22;17437;47.188;8.896;2022-09-01T14:54:51;23.20;99.90
30678;DHT22;17437;47.188;8.896;2022-09-01T14:57:22;23.20;99.90
30678;DHT22;17437;47.188;8.896;2022-09-01T14:59:55;23.30;99.90
30678;DHT22;17437;47.188;8.896;2022-09-01T15:02:27;23.30;99.90
30678;DHT22;17437;47.188;8.896;2022-09-01T15:04:59;23.20;99.90
30678;DHT22;17437;47.188;8.896;2022-09-01T15:07:31;23.30;99.90
30678;DHT22;17437;47.188;8.896;2022-09-01T15:10:05;23.30;99.90
30678;DHT22;17437;47.188;8.896;2022-09-01T15:12:37;23.40;99.90
30678;DHT22;17437;47.188;8.896;2022-09-01T15:15:10;23.30;99.90
30678;DHT22;17437;47.188;8.896;2022-09-01T15:17:41;23.30;99.90
30678;DHT22;17437;47.188;8.896;2022-09-01T15:20:14;23.30;99.90
30678;DHT22;17437;47.188;8.896;2022-09-01T15:23:04;23.30;99.90
30678;DHT22;17437;47.188;8.896;2022-09-01T15:25:36;23.30;99.90
30678;DHT22;17437;47.188;8.896;2022-09-01T15:28:07;23.30;99.90
30678;DHT22;17437;47.188;8.896;2022-09-01T15:30:39;23.30;99.90
30678;DHT22;17437;47.188;8.896;2022-09-01T15:33:12;23.30;99.90
30678;DHT22;17437;47.188;8.896;2022-09-01T15:35:46;23.40;99.90
30678;DHT22;17437;47.188;8.896;2022-09-01T15:38:17;23.40;99.90
30678;DHT22;17437;47.188;8.896;2022-09-01T15:40:49;23.30;99.90
30678;DHT22;17437;47.188;8.896;2022-09-01T15:43:22;23.30;99.90
30678;DHT22;17437;47.188;8.896;2022-09-01T15:45:55;23.20;99.90
30678;DHT22;17437;47.188;8.896;2022-09-01T15:48:28;23.30;99.90
30678;DHT22;17437;47.188;8.896;2022-09-01T15:51:24;23.30;99.90
30678;DHT22;17437;47.188;8.896;2022-09-01T15:53:39;23.30;99.90
30678;DHT22;17437;47.188;8.896;2022-09-01T15:56:11;23.30;99.90
30678;DHT22;17437;47.188;8.896;2022-09-01T15:58:43;23.30;99.90
30678;DHT22;17437;47.188;8.896;2022-09-01T16:01:19;23.30;99.90
30678;DHT22;17437;47.188;8.896;2022-09-01T16:03:51;23.30;99.90
30678;DHT22;17437;47.188;8.896;2022-09-01T16:06:23;23.20;99.90
30678;DHT22;17437;47.188;8.896;2022-09-01T16:08:55;23.00;99.90
30678;DHT22;17437;47.188;8.896;2022-09-01T16:11:27;22.70;99.90
30678;DHT22;17437;47.188;8.896;2022-09-01T16:13:59;22.70;99.90
30678;DHT22;17437;47.188;8.896;2022-09-01T16:16:39;22.70;99.90
30678;DHT22;17437;47.188;8.896;2022-09-01T16:19:19;22.50;99.90
30678;DHT22;17437;47.188;8.896;2022-09-01T16:21:53;22.50;99.90
30678;DHT22;17437;47.188;8.896;2022-09-01T16:24:24;22.50;99.90